createdAt,value
2022-09-24T00:01:16.453Z,4.45
2022-09-24T00:03:44.767Z,4.53
2022-09-24T00:06:12.434Z,4.65
2022-09-24T00:08:38.896Z,5.04
2022-09-24T00:11:07.007Z,4.64
2022-09-24T00:13:34.994Z,4.84
2022-09-24T00:16:06.555Z,4.83
2022-09-24T00:18:34.429Z,4.96
2022-09-24T00:21:01.318Z,4.91
2022-09-24T00:23:27.849Z,4.75
2022-09-24T00:25:54.296Z,4.68
2022-09-24T00:28:20.777Z,4.85
2022-09-24T00:30:47.248Z,4.74
2022-09-24T00:33:13.700Z,4.71
2022-09-24T00:35:40.166Z,4.88
2022-09-24T00:38:06.907Z,4.21
2022-09-24T00:40:37.232Z,4.23
2022-09-24T00:43:30.028Z,3.84
2022-09-24T00:46:17.734Z,3.27
2022-09-24T00:48:48.341Z,3.02
2022-09-24T00:51:19.280Z,2.94
2022-09-24T00:53:50.748Z,3.15
2022-09-24T00:56:19.291Z,2.86
2022-09-24T00:58:51.174Z,3.03
2022-09-24T01:01:21.713Z,3.22
2022-09-24T01:03:52.297Z,3.68
2022-09-24T01:06:18.768Z,3.58
2022-09-24T01:08:46.188Z,3.57
2022-09-24T01:11:37.133Z,3.41
2022-09-24T01:14:13.331Z,3.29
2022-09-24T01:16:54.916Z,3.36
2022-09-24T01:19:39.654Z,2.96
2022-09-24T01:22:25.590Z,3.13
2022-09-24T01:25:02.191Z,3.08
2022-09-24T01:27:28.596Z,3.05
2022-09-24T01:30:05.741Z,2.87
2022-09-24T01:32:39.008Z,3.09
2022-09-24T01:35:17.413Z,3.20
2022-09-24T01:37:51.564Z,3.08
2022-09-24T01:40:22.314Z,3.18
2022-09-24T01:42:52.067Z,3.09
2022-09-24T01:45:20.765Z,3.09
2022-09-24T01:47:47.684Z,2.99
2022-09-24T01:50:17.371Z,3.05
2022-09-24T01:52:58.028Z,2.97
2022-09-24T01:55:28.255Z,3.13
2022-09-24T01:58:05.164Z,3.29
2022-09-24T02:00:31.906Z,3.04
2022-09-24T02:03:13.104Z,2.87
2022-09-24T02:05:55.572Z,2.66
2022-09-24T02:08:29.255Z,2.57
2022-09-24T02:11:22.603Z,2.64
2022-09-24T02:14:10.311Z,2.82
2022-09-24T02:16:43.884Z,3.04
2022-09-24T02:19:14.921Z,2.74
2022-09-24T02:21:44.805Z,2.62
2022-09-24T02:24:33.372Z,2.51
2022-09-24T02:27:00.622Z,2.46
2022-09-24T02:29:27.153Z,2.53
2022-09-24T02:31:57.540Z,2.50
2022-09-24T02:34:33.223Z,2.56
2022-09-24T02:37:05.720Z,2.57
2022-09-24T02:39:32.189Z,2.76
2022-09-24T02:42:00.715Z,2.40
2022-09-24T02:44:27.202Z,2.68
2022-09-24T02:46:53.724Z,2.53
2022-09-24T02:49:20.244Z,2.69
2022-09-24T02:51:46.781Z,2.32
2022-09-24T02:54:13.703Z,2.45
2022-09-24T02:56:40.804Z,2.39
2022-09-24T02:59:08.159Z,2.49
2022-09-24T03:01:36.018Z,2.31
2022-09-24T03:04:03.302Z,2.27
2022-09-24T03:06:30.069Z,2.33
2022-09-24T03:08:57.113Z,2.15
2022-09-24T03:11:24.128Z,2.23
2022-09-24T03:13:51.380Z,2.11
2022-09-24T03:16:18.371Z,2.20
2022-09-24T03:18:47.291Z,2.19
2022-09-24T03:21:16.293Z,2.23
2022-09-24T03:23:43.449Z,2.19
2022-09-24T03:26:10.998Z,2.27
2022-09-24T03:28:37.697Z,2.17
2022-09-24T03:31:05.050Z,2.17
2022-09-24T03:33:47.212Z,2.26
2022-09-24T03:36:16.786Z,2.29
2022-09-24T03:38:45.197Z,2.40
2022-09-24T03:41:12.833Z,2.19
2022-09-24T03:43:40.017Z,2.16
2022-09-24T03:46:08.144Z,2.26
2022-09-24T03:48:37.900Z,2.26
2022-09-24T03:51:13.044Z,2.33
2022-09-24T03:53:39.995Z,2.24
2022-09-24T03:56:08.380Z,2.34
2022-09-24T03:58:36.578Z,2.34
2022-09-24T04:01:03.217Z,2.30
2022-09-24T04:03:29.699Z,2.30
2022-09-24T04:05:56.156Z,2.26
2022-09-24T04:08:23.103Z,2.41
2022-09-24T04:10:51.119Z,2.32
2022-09-24T04:13:18.967Z,2.37
2022-09-24T04:15:45.509Z,2.68
2022-09-24T04:18:12.032Z,3.13
2022-09-24T04:20:38.511Z,2.81
2022-09-24T04:23:05.035Z,2.76
2022-09-24T04:25:32.333Z,4.10
2022-09-24T04:28:04.639Z,3.02
2022-09-24T04:30:33.139Z,2.86
2022-09-24T04:33:00.426Z,3.63
2022-09-24T04:35:29.551Z,3.61
2022-09-24T04:37:56.836Z,3.90
2022-09-24T04:40:23.330Z,4.03
2022-09-24T04:42:49.990Z,4.07
2022-09-24T04:45:16.658Z,4.38
2022-09-24T04:47:43.301Z,4.06
2022-09-24T04:50:10.758Z,2.71
2022-09-24T04:52:39.284Z,3.13
2022-09-24T04:55:06.622Z,3.83
2022-09-24T04:57:33.056Z,3.56
2022-09-24T04:59:59.510Z,3.19
2022-09-24T05:02:26.102Z,3.03
2022-09-24T05:04:52.635Z,2.58
2022-09-24T05:07:19.097Z,3.05
2022-09-24T05:09:45.546Z,2.99
2022-09-24T05:12:12.041Z,3.12
2022-09-24T05:14:38.508Z,3.10
2022-09-24T05:17:05.325Z,3.11
2022-09-24T05:19:31.781Z,3.23
2022-09-24T05:21:58.265Z,3.12
2022-09-24T05:24:24.748Z,2.92
2022-09-24T05:26:51.168Z,3.00
2022-09-24T05:29:17.984Z,2.93
2022-09-24T05:31:44.736Z,3.46
2022-09-24T05:34:11.397Z,3.56
2022-09-24T05:36:37.852Z,3.27
2022-09-24T05:39:04.296Z,3.56
2022-09-24T05:41:30.749Z,3.48
2022-09-24T05:43:57.205Z,3.60
2022-09-24T05:46:23.703Z,3.35
2022-09-24T05:48:50.335Z,3.16
2022-09-24T05:51:16.841Z,3.24
2022-09-24T05:53:43.416Z,2.96
2022-09-24T05:56:09.946Z,3.31
2022-09-24T05:58:36.637Z,2.71
2022-09-24T06:01:03.168Z,2.89
2022-09-24T06:03:30.288Z,2.80
2022-09-24T06:05:57.512Z,2.57
2022-09-24T06:08:23.956Z,2.89
2022-09-24T06:10:50.437Z,2.81
2022-09-24T06:13:19.481Z,2.93
2022-09-24T06:15:46.552Z,3.01
2022-09-24T06:18:13.065Z,3.09
2022-09-24T06:20:39.532Z,3.26
2022-09-24T06:23:06.004Z,3.54
2022-09-24T06:25:32.462Z,3.81
2022-09-24T06:28:01.396Z,3.43
2022-09-24T06:30:38.747Z,3.50
2022-09-24T06:33:08.155Z,3.52
2022-09-24T06:35:36.003Z,3.54
2022-09-24T06:38:06.748Z,3.49
2022-09-24T06:40:37.362Z,3.47
2022-09-24T06:43:05.559Z,3.16
2022-09-24T06:45:33.052Z,3.45
2022-09-24T06:48:01.517Z,3.36
2022-09-24T06:50:29.900Z,3.51
2022-09-24T06:52:57.162Z,3.39
2022-09-24T06:55:23.721Z,3.54
2022-09-24T06:57:50.233Z,3.83
2022-09-24T07:00:17.221Z,3.57
2022-09-24T07:02:43.711Z,3.49
2022-09-24T07:05:10.196Z,3.53
2022-09-24T07:07:36.680Z,3.72
2022-09-24T07:10:06.823Z,3.49
2022-09-24T07:12:35.461Z,3.14
2022-09-24T07:15:01.961Z,2.81
2022-09-24T07:17:33.797Z,3.20
2022-09-24T07:20:01.024Z,2.90
2022-09-24T07:22:27.570Z,2.94
2022-09-24T07:24:54.008Z,2.89
2022-09-24T07:27:20.475Z,2.92
2022-09-24T07:29:48.008Z,3.01
2022-09-24T07:32:16.722Z,3.06
2022-09-24T07:34:43.327Z,3.15
2022-09-24T07:37:09.809Z,3.19
2022-09-24T07:39:36.246Z,3.10
2022-09-24T07:42:02.816Z,3.55
2022-09-24T07:44:29.279Z,3.20
2022-09-24T07:46:55.861Z,2.98
2022-09-24T07:49:22.338Z,2.97
2022-09-24T07:51:48.770Z,2.96
2022-09-24T07:54:17.367Z,2.90
2022-09-24T07:56:44.034Z,2.88
2022-09-24T07:59:10.466Z,2.55
2022-09-24T08:01:37.201Z,2.46
2022-09-24T08:04:04.513Z,2.83
2022-09-24T08:06:38.299Z,2.70
2022-09-24T08:09:06.212Z,3.03
2022-09-24T08:11:32.647Z,2.91
2022-09-24T08:13:59.195Z,3.03
2022-09-24T08:16:25.768Z,2.99
2022-09-24T08:18:53.069Z,2.88
2022-09-24T08:21:20.251Z,3.02
2022-09-24T08:23:46.881Z,3.05
2022-09-24T08:26:14.361Z,2.96
2022-09-24T08:28:41.597Z,2.76
2022-09-24T08:31:12.026Z,3.04
2022-09-24T08:33:38.869Z,2.82
2022-09-24T08:36:09.985Z,2.58
2022-09-24T08:38:36.741Z,2.36
2022-09-24T08:41:12.271Z,2.49
2022-09-24T08:44:02.183Z,2.41
2022-09-24T08:46:47.183Z,2.43
2022-09-24T08:49:41.063Z,2.35
2022-09-24T08:52:27.715Z,2.59
2022-09-24T08:55:00.217Z,2.42
2022-09-24T08:57:28.546Z,2.55
2022-09-24T08:59:55.063Z,2.58
2022-09-24T09:02:44.684Z,2.72
2022-09-24T09:05:35.872Z,2.90
2022-09-24T09:08:33.932Z,2.81
2022-09-24T09:11:03.190Z,2.96
2022-09-24T09:13:41.558Z,2.94
2022-09-24T09:16:24.931Z,3.08
2022-09-24T09:18:59.997Z,3.29
2022-09-24T09:21:39.331Z,3.36
2022-09-24T09:24:17.163Z,3.08
2022-09-24T09:26:49.150Z,3.23
2022-09-24T09:29:17.095Z,3.00
2022-09-24T09:31:46.508Z,3.05
2022-09-24T09:34:25.481Z,2.95
2022-09-24T09:37:07.163Z,3.19
2022-09-24T09:39:45.725Z,3.22
2022-09-24T09:42:34.547Z,3.30
2022-09-24T09:45:27.726Z,3.13
2022-09-24T09:47:57.318Z,3.09
2022-09-24T09:50:39.288Z,3.29
2022-09-24T09:53:05.819Z,3.69
2022-09-24T09:55:38.144Z,3.75
2022-09-24T09:58:22.193Z,3.37
2022-09-24T10:00:49.014Z,3.75
2022-09-24T10:03:25.839Z,3.69
2022-09-24T10:06:06.244Z,3.51
2022-09-24T10:08:32.912Z,3.21
2022-09-24T10:11:01.388Z,3.45
2022-09-24T10:13:27.866Z,2.92
2022-09-24T10:15:58.685Z,2.79
2022-09-24T10:18:29.180Z,2.88
2022-09-24T10:20:58.153Z,2.55
2022-09-24T10:23:36.514Z,2.53
2022-09-24T10:26:05.127Z,2.63
2022-09-24T10:28:34.949Z,2.91
2022-09-24T10:31:11.050Z,3.38
2022-09-24T10:33:40.312Z,4.21
2022-09-24T10:36:30.200Z,3.77
2022-09-24T10:39:08.720Z,3.86
2022-09-24T10:41:35.295Z,3.98
2022-09-24T10:44:10.729Z,3.53
2022-09-24T10:47:07.105Z,3.21
2022-09-24T10:49:33.583Z,3.19
2022-09-24T10:52:30.917Z,3.21
2022-09-24T10:55:30.702Z,3.49
2022-09-24T10:58:05.155Z,3.38
2022-09-24T11:00:39.124Z,2.82
2022-09-24T11:03:49.112Z,2.57
2022-09-24T11:06:21.327Z,2.51
2022-09-24T11:08:59.389Z,2.75
2022-09-24T11:11:59.680Z,2.61
2022-09-24T11:15:06.929Z,1.99
2022-09-24T11:18:13.271Z,1.88
2022-09-24T11:20:51.903Z,1.92
2022-09-24T11:23:21.288Z,1.67
2022-09-24T11:25:54.531Z,1.43
2022-09-24T11:29:06.897Z,1.51
2022-09-24T11:31:57.636Z,1.74
2022-09-24T11:34:33.616Z,2.34
2022-09-24T11:37:20.708Z,1.79
2022-09-24T11:40:20.026Z,2.56
2022-09-24T11:43:14.204Z,1.89
2022-09-24T11:45:43.471Z,1.72
2022-09-24T11:48:18.811Z,1.94
2022-09-24T11:50:57.313Z,1.47
2022-09-24T11:53:34.739Z,1.47
2022-09-24T11:56:15.166Z,1.24
2022-09-24T11:59:10.482Z,1.38
2022-09-24T12:01:44.436Z,1.32
2022-09-24T12:04:18.038Z,1.39
2022-09-24T12:06:59.925Z,1.28
2022-09-24T12:09:45.547Z,1.19
2022-09-24T12:12:24.899Z,1.56
2022-09-24T12:15:04.774Z,1.43
2022-09-24T12:17:41.065Z,1.51
2022-09-24T12:20:30.078Z,1.33
2022-09-24T12:23:04.331Z,1.44
2022-09-24T12:25:45.122Z,1.45
2022-09-24T12:28:20.677Z,1.27
2022-09-24T12:30:57.649Z,1.26
2022-09-24T12:33:37.675Z,1.25
2022-09-24T12:36:27.684Z,1.54
2022-09-24T12:39:03.954Z,2.10
2022-09-24T12:41:39.223Z,2.06
2022-09-24T12:44:11.921Z,1.68
2022-09-24T12:46:51.440Z,1.64
2022-09-24T12:49:26.937Z,1.78
2022-09-24T12:51:56.988Z,1.79
2022-09-24T12:54:35.908Z,1.99
2022-09-24T12:57:09.779Z,1.93
2022-09-24T12:59:47.709Z,2.42
2022-09-24T13:02:24.303Z,2.62
2022-09-24T13:05:13.607Z,2.09
2022-09-24T13:07:40.850Z,2.34
2022-09-24T13:10:24.528Z,2.42
2022-09-24T13:12:51.469Z,2.40
2022-09-24T13:15:33.243Z,2.17
2022-09-24T13:18:04.753Z,2.44
2022-09-24T13:20:33.725Z,2.30
2022-09-24T13:23:23.189Z,2.21
2022-09-24T13:25:57.108Z,2.40
2022-09-24T13:28:38.598Z,2.67
2022-09-24T13:31:21.716Z,2.33
2022-09-24T13:33:58.738Z,2.08
2022-09-24T13:36:37.848Z,2.54
2022-09-24T13:39:16.580Z,2.44
2022-09-24T13:41:51.917Z,2.71
2022-09-24T13:44:39.233Z,2.90
2022-09-24T13:47:13.839Z,2.63
2022-09-24T13:49:46.884Z,2.98
2022-09-24T13:52:25.370Z,3.34
2022-09-24T13:54:57.009Z,3.26
2022-09-24T13:57:26.319Z,2.99
2022-09-24T14:00:16.378Z,3.17
2022-09-24T14:02:53.868Z,2.98
2022-09-24T14:05:21.782Z,3.03
2022-09-24T14:08:06.322Z,2.79
2022-09-24T14:10:33.957Z,2.72
2022-09-24T14:13:13.531Z,2.95
2022-09-24T14:15:55.303Z,2.96
2022-09-24T14:18:23.229Z,2.56
2022-09-24T14:21:07.524Z,2.78
2022-09-24T14:23:42.132Z,2.88
2022-09-24T14:26:18.374Z,3.00
2022-09-24T14:28:45.566Z,3.00
2022-09-24T14:31:12.108Z,3.08
2022-09-24T14:33:40.657Z,3.27
2022-09-24T14:36:12.878Z,2.95
2022-09-24T14:38:56.285Z,2.84
2022-09-24T14:41:32.212Z,3.00
2022-09-24T14:44:24.912Z,2.83
2022-09-24T14:46:56.386Z,2.89
2022-09-24T14:49:28.682Z,2.82
2022-09-24T14:52:03.990Z,2.58
2022-09-24T14:54:35.174Z,2.67
2022-09-24T14:57:16.798Z,2.51
2022-09-24T14:59:45.031Z,2.89
2022-09-24T15:02:35.375Z,2.79
2022-09-24T15:05:07.960Z,2.68
2022-09-24T15:07:35.431Z,2.91
2022-09-24T15:10:05.121Z,2.67
2022-09-24T15:12:42.636Z,2.50
2022-09-24T15:15:14.917Z,2.38
2022-09-24T15:17:41.362Z,2.20
2022-09-24T15:20:11.008Z,2.46
2022-09-24T15:22:38.115Z,2.07
2022-09-24T15:25:05.856Z,2.18
2022-09-24T15:27:37.341Z,2.27
2022-09-24T15:30:07.087Z,2.34
2022-09-24T15:32:34.630Z,2.27
2022-09-24T15:35:01.254Z,2.20
2022-09-24T15:37:29.472Z,2.16
2022-09-24T15:40:07.245Z,2.07
2022-09-24T15:42:33.742Z,2.04
2022-09-24T15:45:00.325Z,2.19
2022-09-24T15:47:26.749Z,2.21
2022-09-24T15:49:53.333Z,2.16
2022-09-24T15:52:27.784Z,2.13
2022-09-24T15:54:57.324Z,2.50
2022-09-24T15:57:24.751Z,2.29
2022-09-24T15:59:51.282Z,2.44
2022-09-24T16:02:25.305Z,2.31
2022-09-24T16:04:51.834Z,2.27
2022-09-24T16:07:18.672Z,2.41
2022-09-24T16:09:45.292Z,2.51
2022-09-24T16:12:15.509Z,2.43
2022-09-24T16:14:42.568Z,2.47
2022-09-24T16:17:09.853Z,3.10
2022-09-24T16:19:36.587Z,2.77
2022-09-24T16:22:04.347Z,2.61
2022-09-24T16:24:34.680Z,2.55
2022-09-24T16:27:01.687Z,2.49
2022-09-24T16:29:28.130Z,2.55
2022-09-24T16:31:54.579Z,2.87
2022-09-24T16:34:21.079Z,2.95
2022-09-24T16:36:47.507Z,2.85
2022-09-24T16:39:13.970Z,3.74
2022-09-24T16:41:40.419Z,3.14
2022-09-24T16:44:06.852Z,2.93
2022-09-24T16:46:33.792Z,3.59
2022-09-24T16:49:00.348Z,3.06
2022-09-24T16:51:26.961Z,3.40
2022-09-24T16:53:55.273Z,5.43
2022-09-24T16:56:21.873Z,3.66
2022-09-24T16:58:48.350Z,3.72
2022-09-24T17:01:18.237Z,3.83
2022-09-24T17:03:51.092Z,3.71
2022-09-24T17:06:19.644Z,3.53
2022-09-24T17:08:46.155Z,3.82
2022-09-24T17:11:13.014Z,3.89
2022-09-24T17:13:39.522Z,4.10
2022-09-24T17:16:06.205Z,4.74
2022-09-24T17:18:32.658Z,4.65
2022-09-24T17:21:03.606Z,3.93
2022-09-24T17:23:30.038Z,3.87
2022-09-24T17:26:08.843Z,4.37
2022-09-24T17:28:37.860Z,4.01
2022-09-24T17:31:05.809Z,3.97
2022-09-24T17:33:43.236Z,5.66
2022-09-24T17:36:12.290Z,4.52
2022-09-24T17:38:38.742Z,4.01
2022-09-24T17:41:10.861Z,4.63
2022-09-24T17:43:38.579Z,4.01
2022-09-24T17:46:13.632Z,4.28
2022-09-24T17:48:43.299Z,6.30
2022-09-24T17:51:15.512Z,4.98
2022-09-24T17:53:42.965Z,4.62
2022-09-24T17:56:11.804Z,3.79
2022-09-24T17:58:41.068Z,4.93
2022-09-24T18:01:17.146Z,5.91
2022-09-24T18:03:44.744Z,4.89
2022-09-24T18:06:13.720Z,5.22
2022-09-24T18:08:42.334Z,3.98
2022-09-24T18:11:13.640Z,4.27
2022-09-24T18:13:40.786Z,4.12
2022-09-24T18:16:08.805Z,5.76
2022-09-24T18:18:36.014Z,6.49
2022-09-24T18:21:08.199Z,5.56
2022-09-24T18:23:35.749Z,6.34
2022-09-24T18:26:26.674Z,5.90
2022-09-24T18:28:58.376Z,4.83
2022-09-24T18:31:27.561Z,4.82
2022-09-24T18:33:55.884Z,6.12
2022-09-24T18:36:24.332Z,6.41
2022-09-24T18:38:51.438Z,6.05
2022-09-24T18:41:20.114Z,4.47
2022-09-24T18:43:46.682Z,5.17
2022-09-24T18:46:15.542Z,4.49
2022-09-24T18:48:44.494Z,4.43
2022-09-24T18:51:23.685Z,4.54
2022-09-24T18:53:55.607Z,4.30
2022-09-24T18:56:23.402Z,5.11
2022-09-24T18:59:04.748Z,5.42
2022-09-24T19:01:33.998Z,6.06
2022-09-24T19:04:01.366Z,5.19
2022-09-24T19:06:29.171Z,4.39
2022-09-24T19:08:56.163Z,3.89
2022-09-24T19:11:22.818Z,4.53
2022-09-24T19:13:54.056Z,4.16
2022-09-24T19:16:23.155Z,4.13
2022-09-24T19:18:51.108Z,4.71
2022-09-24T19:21:17.592Z,5.45
2022-09-24T19:23:50.152Z,4.71
2022-09-24T19:26:19.715Z,4.51
2022-09-24T19:28:48.272Z,5.08
2022-09-24T19:31:30.097Z,5.32
2022-09-24T19:33:59.416Z,4.84
2022-09-24T19:36:25.874Z,5.10
2022-09-24T19:38:52.369Z,5.33
2022-09-24T19:41:25.213Z,5.56
2022-09-24T19:44:06.000Z,4.80
2022-09-24T19:46:34.943Z,4.64
2022-09-24T19:49:01.443Z,5.35
2022-09-24T19:51:30.813Z,5.27
2022-09-24T19:54:07.032Z,5.19
2022-09-24T19:56:34.188Z,5.20
2022-09-24T19:59:02.034Z,5.09
2022-09-24T20:01:30.894Z,5.31
2022-09-24T20:03:59.573Z,5.47
2022-09-24T20:06:27.753Z,5.35
2022-09-24T20:08:54.903Z,5.46
2022-09-24T20:11:23.112Z,5.25
2022-09-24T20:13:51.106Z,4.75
2022-09-24T20:16:21.547Z,4.79
2022-09-24T20:18:50.018Z,5.18
2022-09-24T20:21:17.929Z,4.47
2022-09-24T20:23:46.612Z,4.40
2022-09-24T20:26:14.548Z,5.48
2022-09-24T20:28:40.995Z,5.39
2022-09-24T20:31:12.530Z,5.04
2022-09-24T20:33:40.014Z,5.60
2022-09-24T20:36:14.775Z,5.60
2022-09-24T20:38:44.544Z,4.83
2022-09-24T20:41:23.561Z,4.58
2022-09-24T20:43:51.363Z,4.73
2022-09-24T20:46:23.912Z,5.30
2022-09-24T20:48:52.019Z,5.17
2022-09-24T20:51:20.813Z,4.85
2022-09-24T20:53:49.203Z,5.55
2022-09-24T20:56:17.561Z,4.87
2022-09-24T20:58:47.982Z,4.80
2022-09-24T21:01:14.508Z,4.67
2022-09-24T21:03:45.548Z,4.56
2022-09-24T21:06:13.124Z,4.90
2022-09-24T21:08:42.343Z,4.94
2022-09-24T21:11:15.344Z,4.89
2022-09-24T21:13:44.575Z,4.50
2022-09-24T21:16:12.227Z,4.69
2022-09-24T21:18:41.548Z,4.86
2022-09-24T21:21:10.474Z,5.24
2022-09-24T21:23:37.449Z,5.26
2022-09-24T21:26:21.874Z,5.47
2022-09-24T21:28:51.481Z,4.84
2022-09-24T21:31:21.379Z,4.58
2022-09-24T21:33:50.430Z,4.44
2022-09-24T21:36:16.859Z,4.60
2022-09-24T21:38:43.306Z,4.53
2022-09-24T21:41:09.780Z,4.52
2022-09-24T21:43:36.251Z,4.15
2022-09-24T21:46:05.724Z,4.91
2022-09-24T21:48:33.680Z,5.04
2022-09-24T21:51:12.598Z,4.45
2022-09-24T21:53:40.216Z,4.40
2022-09-24T21:56:07.102Z,4.36
2022-09-24T21:58:33.568Z,4.52
2022-09-24T22:01:03.191Z,4.71
2022-09-24T22:03:31.318Z,4.93
2022-09-24T22:05:57.778Z,4.98
2022-09-24T22:08:24.345Z,5.07
2022-09-24T22:10:50.857Z,4.72
2022-09-24T22:13:17.288Z,4.63
2022-09-24T22:15:44.721Z,4.72
2022-09-24T22:18:11.551Z,4.32
2022-09-24T22:20:44.098Z,4.40
2022-09-24T22:23:11.179Z,4.52
2022-09-24T22:25:37.952Z,4.42
2022-09-24T22:28:04.438Z,4.00
2022-09-24T22:30:31.020Z,3.95
2022-09-24T22:32:57.786Z,4.03
2022-09-24T22:35:24.243Z,4.51
2022-09-24T22:37:50.753Z,4.03
2022-09-24T22:40:17.257Z,4.24
2022-09-24T22:42:43.779Z,3.82
2022-09-24T22:45:10.381Z,3.98
2022-09-24T22:47:36.817Z,3.91
2022-09-24T22:50:03.310Z,3.74
2022-09-24T22:52:29.764Z,3.85
2022-09-24T22:54:56.225Z,3.57
2022-09-24T22:57:22.769Z,3.59
2022-09-24T22:59:49.203Z,3.75
2022-09-24T23:02:15.727Z,3.72
2022-09-24T23:04:42.289Z,3.81
2022-09-24T23:07:08.770Z,3.71
2022-09-24T23:09:35.234Z,3.76
2022-09-24T23:12:01.911Z,3.64
2022-09-24T23:14:28.346Z,3.59
2022-09-24T23:16:54.841Z,3.32
2022-09-24T23:19:21.332Z,3.30
2022-09-24T23:21:47.765Z,3.54
2022-09-24T23:24:17.298Z,3.58
2022-09-24T23:26:44.948Z,3.52
2022-09-24T23:29:13.076Z,3.71
2022-09-24T23:31:39.646Z,3.46
2022-09-24T23:34:07.064Z,3.50
2022-09-24T23:36:34.737Z,3.53
2022-09-24T23:39:02.137Z,3.43
2022-09-24T23:41:28.667Z,3.61
2022-09-24T23:43:55.137Z,3.48
2022-09-24T23:46:21.654Z,3.64
2022-09-24T23:48:48.176Z,3.64
2022-09-24T23:51:14.611Z,3.92
2022-09-24T23:53:41.092Z,3.76
2022-09-24T23:56:08.328Z,3.65
2022-09-24T23:58:35.629Z,3.91
